createdAt,value
2019-05-12T00:00:15.339Z,2.7
2019-05-12T00:01:14.528Z,2.5
2019-05-12T00:02:17.753Z,2.8
2019-05-12T00:03:14.549Z,2.8
2019-05-12T00:04:15.744Z,2.7
2019-05-12T00:05:18.136Z,2.7
2019-05-12T00:06:14.829Z,2.5
2019-05-12T00:07:14.833Z,2.6
2019-05-12T00:08:14.974Z,3
2019-05-12T00:09:15.061Z,2.7
2019-05-12T00:10:17.575Z,2.5
2019-05-12T00:11:15.275Z,3
2019-05-12T00:12:15.417Z,2.7
2019-05-12T00:13:18.750Z,3.3
2019-05-12T00:14:17.632Z,3.2
2019-05-12T00:15:15.719Z,3
2019-05-12T00:16:17.670Z,3
2019-05-12T00:19:17.908Z,2.8
2019-05-12T00:20:18.044Z,3
2019-05-12T00:21:17.649Z,3.2
2019-05-12T00:22:18.055Z,3.3
2019-05-12T00:23:24.634Z,3
2019-05-12T00:24:18.629Z,3.3
2019-05-12T00:25:18.071Z,3.1
2019-05-12T00:26:18.606Z,3.2
2019-05-12T00:27:17.826Z,3.1
2019-05-12T00:28:17.873Z,3.1
2019-05-12T00:29:18.451Z,3.3
2019-05-12T00:30:18.479Z,3.1
2019-05-12T00:31:18.822Z,2.9
2019-05-12T00:32:18.018Z,3.3
2019-05-12T00:33:18.027Z,2.8
2019-05-12T00:34:18.492Z,3.2
2019-05-12T00:35:18.268Z,3.2
2019-05-12T00:36:18.545Z,3.5
2019-05-12T00:37:18.655Z,3.1
2019-05-12T00:38:18.227Z,3.7
2019-05-12T00:39:19.039Z,3.5
2019-05-12T00:40:19.101Z,3.5
2019-05-12T00:41:19.608Z,3
2019-05-12T00:42:18.698Z,3.4
2019-05-12T00:43:19.004Z,3.3
2019-05-12T00:44:18.956Z,3.2
2019-05-12T00:45:19.073Z,3.2
2019-05-12T00:46:19.208Z,3.6
2019-05-12T00:47:19.322Z,3.4
2019-05-12T00:48:19.460Z,3.5
2019-05-12T00:49:19.594Z,4.1
2019-05-12T00:50:19.711Z,3.7
2019-05-12T00:51:19.812Z,3.2
2019-05-12T00:52:19.940Z,3.7
2019-05-12T00:53:20.073Z,3.4
2019-05-12T00:54:20.255Z,3.6
2019-05-12T00:55:20.210Z,3.5
2019-05-12T00:56:20.321Z,3.6
2019-05-12T00:57:20.443Z,3.9
2019-05-12T00:58:20.583Z,3.2
2019-05-12T00:59:20.710Z,3.2
2019-05-12T01:00:20.820Z,3.5
2019-05-12T01:01:20.959Z,3.4
2019-05-12T01:02:21.087Z,3.8
2019-05-12T01:03:21.135Z,3.4
2019-05-12T01:04:21.269Z,3.3
2019-05-12T01:05:21.368Z,3.2
2019-05-12T01:06:21.386Z,3.7
2019-05-12T01:07:21.343Z,3.6
2019-05-12T01:08:21.511Z,3.4
2019-05-12T01:09:21.475Z,3.6
2019-05-12T01:10:21.582Z,3.5
2019-05-12T01:11:21.707Z,3.1
2019-05-12T01:12:21.834Z,3.4
2019-05-12T01:13:21.957Z,3.4
2019-05-12T01:14:22.105Z,3.5
2019-05-12T01:15:22.091Z,3.5
2019-05-12T01:16:22.203Z,3.9
2019-05-12T01:17:22.337Z,3.1
2019-05-12T01:18:22.447Z,3.6
2019-05-12T01:19:22.650Z,4
2019-05-12T01:20:22.601Z,4
2019-05-12T01:21:22.710Z,3.4
2019-05-12T01:22:22.835Z,3.5
2019-05-12T01:23:23.573Z,3.7
2019-05-12T01:24:23.137Z,3.7
2019-05-12T01:25:23.182Z,3.6
2019-05-12T01:26:23.289Z,3.7
2019-05-12T01:27:23.393Z,3.5
2019-05-12T01:28:23.502Z,3.7
2019-05-12T01:29:23.656Z,3.9
2019-05-12T01:30:23.619Z,3.5
2019-05-12T01:31:23.722Z,3.5
2019-05-12T01:32:23.863Z,3.6
2019-05-12T01:33:23.901Z,4.2
2019-05-12T01:34:23.959Z,3.7
2019-05-12T01:35:24.058Z,3.8
2019-05-12T01:36:24.066Z,4.1
2019-05-12T01:37:24.198Z,3.6
2019-05-12T01:38:24.214Z,3.4
2019-05-12T01:39:24.386Z,3.9
2019-05-12T01:40:24.422Z,3.7
2019-05-12T01:41:24.470Z,4.1
2019-05-12T01:42:24.599Z,3.9
2019-05-12T01:43:24.669Z,3.9
2019-05-12T01:44:24.719Z,4.1
2019-05-12T01:45:24.785Z,3.9
2019-05-12T01:46:24.826Z,4.2
2019-05-12T01:47:24.948Z,4
2019-05-12T01:48:25.052Z,4
2019-05-12T01:49:25.175Z,3.8
2019-05-12T01:50:25.328Z,3.9
2019-05-12T01:51:25.314Z,4.1
2019-05-12T01:52:25.457Z,4
2019-05-12T01:53:25.578Z,4.2
2019-05-12T01:54:27.775Z,4.1
2019-05-12T01:55:27.837Z,3.8
2019-05-12T01:56:25.986Z,4
2019-05-12T01:57:25.967Z,4.2
2019-05-12T01:58:27.773Z,3.8
2019-05-12T01:59:26.125Z,3.8
2019-05-12T02:00:28.186Z,3.7
2019-05-12T02:01:28.022Z,4
2019-05-12T02:02:28.394Z,3.6
2019-05-12T02:03:28.186Z,3.7
2019-05-12T02:04:28.178Z,4.2
2019-05-12T02:05:27.919Z,3.5
2019-05-12T02:06:27.838Z,3.4
2019-05-12T02:07:27.992Z,3.9
2019-05-12T02:08:27.843Z,4.2
2019-05-12T02:09:27.983Z,4.2
2019-05-12T02:10:28.554Z,3.9
2019-05-12T02:11:28.842Z,4.5
2019-05-12T02:32:37.379Z,4.4
2019-05-12T02:33:29.453Z,5.1
2019-05-12T02:34:29.583Z,4.8
2019-05-12T02:35:29.699Z,4.7
2019-05-12T02:36:29.824Z,4.8
2019-05-12T02:37:29.972Z,4.8
2019-05-12T02:38:30.068Z,4.7
2019-05-12T02:39:30.176Z,4.7
2019-05-12T02:40:30.282Z,5.1
2019-05-12T02:41:30.405Z,5
2019-05-12T02:42:30.541Z,5
2019-05-12T02:43:30.660Z,4.8
2019-05-12T02:44:30.779Z,5.2
2019-05-12T02:45:30.856Z,4.6
2019-05-12T02:46:34.503Z,5
2019-05-12T02:47:34.382Z,5.3
2019-05-12T02:48:31.231Z,5.4
2019-05-12T02:49:34.550Z,5.4
2019-05-12T02:50:34.732Z,5
2019-05-12T02:51:34.833Z,5.1
2019-05-12T02:52:34.389Z,5.3
2019-05-12T02:53:34.758Z,5.4
2019-05-12T02:54:50.072Z,5.3
2019-05-12T02:55:34.784Z,4.7
2019-05-12T02:56:35.061Z,5.2
2019-05-12T02:57:34.295Z,4.9
2019-05-12T02:58:34.599Z,5.1
2019-05-12T02:59:34.621Z,5.3
2019-05-12T03:00:35.114Z,5.5
2019-05-12T03:01:34.721Z,5
2019-05-12T03:02:34.683Z,5.6
2019-05-12T03:03:35.206Z,5.5
2019-05-12T03:04:34.925Z,5.3
2019-05-12T03:05:35.028Z,5.3
2019-05-12T03:06:36.053Z,5.7
2019-05-12T03:07:34.568Z,5.7
2019-05-12T03:08:34.785Z,5.4
2019-05-12T03:09:35.135Z,5.3
2019-05-12T03:10:35.388Z,5.1
2019-05-12T03:11:35.410Z,5.1
2019-05-12T03:12:34.395Z,5.5
2019-05-12T03:13:34.650Z,4.9
2019-05-12T03:14:39.983Z,5.5
2019-05-12T03:15:36.279Z,5.8
2019-05-12T03:16:34.871Z,5.3
2019-05-12T03:17:35.446Z,5.6
2019-05-12T03:18:34.855Z,5.6
2019-05-12T03:19:34.606Z,5.4
2019-05-12T03:20:35.267Z,5.6
2019-05-12T03:21:35.855Z,5.4
2019-05-12T03:22:35.217Z,5.7
2019-05-12T03:23:35.289Z,5.2
2019-05-12T03:24:35.604Z,5.2
2019-05-12T03:25:36.008Z,5.2
2019-05-12T03:26:34.886Z,5.1
2019-05-12T03:27:35.245Z,5.4
2019-05-12T03:28:35.673Z,5.5
2019-05-12T03:29:34.952Z,5.8
2019-05-12T03:30:38.033Z,5.1
2019-05-12T03:31:39.585Z,5
2019-05-12T03:32:37.655Z,5.3
2019-05-12T03:33:42.610Z,5.1
2019-05-12T03:34:38.098Z,5.8
2019-05-12T03:35:42.235Z,5.4
2019-05-12T03:36:41.549Z,5.8
2019-05-12T03:37:35.390Z,5.8
2019-05-12T03:38:36.084Z,5.3
2019-05-12T03:39:35.292Z,5.6
2019-05-12T03:40:38.204Z,5.3
2019-05-12T03:41:35.476Z,5.3
2019-05-12T03:42:35.641Z,5.3
2019-05-12T03:43:36.476Z,5.3
2019-05-12T03:44:35.713Z,5
2019-05-12T03:45:36.373Z,5.2
2019-05-12T03:46:35.936Z,5.5
2019-05-12T03:47:35.960Z,5.5
2019-05-12T03:48:35.987Z,5.2
2019-05-12T03:49:36.055Z,5.5
2019-05-12T03:50:36.503Z,5.6
2019-05-12T03:51:36.256Z,5.5
2019-05-12T03:52:36.474Z,5.3
2019-05-12T03:53:36.426Z,5.3
2019-05-12T03:54:36.504Z,5.3
2019-05-12T03:55:41.732Z,6
2019-05-12T03:56:36.693Z,5.8
2019-05-12T03:57:36.765Z,5.3
2019-05-12T03:58:36.862Z,5.3
2019-05-12T03:59:36.977Z,6
2019-05-12T04:00:37.071Z,5.8
2019-05-12T04:01:37.142Z,5.7
2019-05-12T04:22:40.106Z,5.1
2019-05-12T04:24:40.259Z,5.5
2019-05-12T04:25:50.812Z,5.2
2019-05-12T04:26:39.369Z,5
2019-05-12T04:27:39.453Z,4.9
2019-05-12T04:28:39.531Z,5.2
2019-05-12T04:29:39.632Z,5.1
2019-05-12T04:30:39.718Z,5
2019-05-12T04:31:40.800Z,4.7
2019-05-12T04:32:39.946Z,5.1
2019-05-12T04:33:40.018Z,5.1
2019-05-12T04:34:40.100Z,5.1
2019-05-12T04:35:40.236Z,5.2
2019-05-12T04:36:40.212Z,4.9
2019-05-12T04:37:40.228Z,5.2
2019-05-12T04:38:40.242Z,4.4
2019-05-12T04:39:40.348Z,4.8
2019-05-12T04:40:40.514Z,4.7
2019-05-12T04:41:40.489Z,4.4
2019-05-12T04:42:40.657Z,4.8
2019-05-12T04:43:40.721Z,4.6
2019-05-12T04:44:40.815Z,4.4
2019-05-12T04:45:41.019Z,5
2019-05-12T04:46:40.985Z,4.8
2019-05-12T04:47:41.099Z,4.6
2019-05-12T04:48:41.223Z,4.5
2019-05-12T04:49:41.281Z,4.9
2019-05-12T04:50:41.360Z,4.5
2019-05-12T04:51:41.437Z,4.5
2019-05-12T04:52:44.430Z,4.2
2019-05-12T04:53:44.532Z,4.6
2019-05-12T04:54:44.392Z,4.5
2019-05-12T04:55:44.468Z,4.7
2019-05-12T04:56:44.543Z,4.6
2019-05-12T04:57:44.639Z,4.4
2019-05-12T04:58:44.886Z,4.6
2019-05-12T04:59:44.738Z,4.6
2019-05-12T05:00:44.753Z,4.8
2019-05-12T05:01:45.272Z,4.6
2019-05-12T05:02:44.917Z,5.1
2019-05-12T05:03:44.257Z,5.2
2019-05-12T05:04:44.064Z,5
2019-05-12T05:05:44.325Z,5.2
2019-05-12T05:06:44.782Z,4.9
2019-05-12T05:07:44.697Z,5
2019-05-12T05:08:44.192Z,5.1
2019-05-12T05:09:44.232Z,5.2
2019-05-12T05:10:44.306Z,5.7
2019-05-12T05:11:45.029Z,4.9
2019-05-12T05:12:44.898Z,6.4
2019-05-12T05:13:44.328Z,6.1
2019-05-12T05:14:44.505Z,6.7
2019-05-12T05:15:44.528Z,6.6
2019-05-12T05:16:45.077Z,5.5
2019-05-12T05:17:44.199Z,5.1
2019-05-12T05:18:44.029Z,4.9
2019-05-12T05:19:44.141Z,5
2019-05-12T05:20:44.066Z,5.6
2019-05-12T05:21:44.074Z,4.7
2019-05-12T05:22:44.211Z,4.9
2019-05-12T05:23:44.451Z,4.9
2019-05-12T05:24:45.320Z,5.3
2019-05-12T05:25:44.384Z,4.9
2019-05-12T05:26:44.448Z,4.8
2019-05-12T05:27:44.578Z,4.8
2019-05-12T05:28:44.534Z,4.6
2019-05-12T05:29:44.605Z,4.3
2019-05-12T05:30:44.686Z,4.6
2019-05-12T05:31:44.793Z,4.6
2019-05-12T05:32:44.928Z,4.8
2019-05-12T05:33:45.053Z,4.8
2019-05-12T05:34:52.787Z,4.6
2019-05-12T05:35:45.232Z,4.4
2019-05-12T05:36:45.374Z,4.8
2019-05-12T05:37:45.490Z,4.4
2019-05-12T05:38:45.570Z,4.4
2019-05-12T05:39:49.518Z,4.5
2019-05-12T05:40:45.685Z,4.6
2019-05-12T05:41:50.809Z,4.3
2019-05-12T05:42:46.811Z,4.5
2019-05-12T05:43:48.557Z,4.7
2019-05-12T05:44:45.985Z,4.5
2019-05-12T05:45:46.100Z,4
2019-05-12T05:46:49.877Z,4.7
2019-05-12T05:47:48.895Z,4.4
2019-05-12T05:48:46.385Z,4.5
2019-05-12T05:49:46.440Z,4.4
2019-05-12T05:50:46.505Z,4.7
2019-05-12T05:51:53.885Z,4.2
2019-05-12T05:52:46.601Z,4.3
2019-05-12T05:53:49.740Z,4.4
2019-05-12T05:54:46.721Z,4.3
2019-05-12T05:55:50.237Z,4.5
2019-05-12T05:56:57.382Z,4.5
2019-05-12T05:57:46.994Z,4.5
2019-05-12T05:58:51.749Z,4.3
2019-05-12T05:59:47.079Z,5.1
2019-05-12T06:00:47.074Z,5.2
2019-05-12T06:01:51.804Z,5.6
2019-05-12T06:02:47.277Z,4.7
2019-05-12T06:15:49.380Z,3.3
2019-05-12T06:23:49.957Z,3.4
2019-05-12T06:25:51.446Z,3.7
2019-05-12T06:26:57.533Z,3.6
2019-05-12T06:27:51.011Z,3.6
2019-05-12T06:28:49.421Z,3.9
2019-05-12T06:29:52.292Z,3.9
2019-05-12T06:30:50.144Z,3.6
2019-05-12T06:31:49.624Z,3.9
2019-05-12T06:32:51.694Z,3.3
2019-05-12T06:33:49.764Z,3.6
2019-05-12T06:34:50.774Z,3.6
2019-05-12T06:35:49.870Z,4
2019-05-12T06:36:50.057Z,4
2019-05-12T06:37:57.649Z,4.4
2019-05-12T06:38:50.235Z,4.2
2019-05-12T06:39:50.833Z,4.5
2019-05-12T06:40:50.274Z,4.9
2019-05-12T06:41:50.438Z,4.5
2019-05-12T06:42:53.839Z,3.8
2019-05-12T06:43:50.592Z,3.9
2019-05-12T06:44:54.727Z,3.5
2019-05-12T06:45:50.581Z,3.3
2019-05-12T06:46:53.308Z,3.5
2019-05-12T06:47:53.096Z,3.2
2019-05-12T06:48:50.852Z,3.6
2019-05-12T06:49:54.616Z,3.4
2019-05-12T06:50:53.306Z,3.4
2019-05-12T06:51:53.336Z,3.3
2019-05-12T06:52:53.100Z,3.2
2019-05-12T06:53:53.437Z,3.5
2019-05-12T06:54:56.531Z,3.5
2019-05-12T06:55:53.769Z,3.5
2019-05-12T06:56:56.042Z,3.6
2019-05-12T06:57:53.880Z,3.6
2019-05-12T06:58:53.437Z,3.4
2019-05-12T06:59:53.021Z,3.4
2019-05-12T07:00:54.014Z,3.3
2019-05-12T07:01:55.906Z,3.3
2019-05-12T07:02:53.010Z,3.4
2019-05-12T07:03:53.357Z,3.2
2019-05-12T07:04:57.165Z,3.7
2019-05-12T07:05:53.339Z,3.2
2019-05-12T07:06:55.883Z,3.3
2019-05-12T07:07:53.400Z,2.9
2019-05-12T07:09:03.277Z,3
2019-05-12T07:09:54.853Z,3
2019-05-12T07:11:01.602Z,3.2
2019-05-12T07:11:58.637Z,3
2019-05-12T07:12:58.708Z,3.2
2019-05-12T07:14:01.999Z,3.2
2019-05-12T07:14:55.252Z,2.7
2019-05-12T07:15:54.381Z,3.4
2019-05-12T07:17:01.337Z,3
2019-05-12T07:17:55.741Z,3.8
2019-05-12T07:18:54.162Z,3.1
2019-05-12T07:19:56.943Z,2.6
2019-05-12T07:20:53.900Z,3
2019-05-12T07:21:58.115Z,2.9
2019-05-12T07:22:54.776Z,3.1
2019-05-12T07:23:54.001Z,3
2019-05-12T07:24:54.963Z,3
2019-05-12T07:25:54.933Z,2.8
2019-05-12T07:27:02.613Z,2.7
2019-05-12T07:28:00.226Z,3
2019-05-12T07:28:54.305Z,3.2
2019-05-12T07:29:54.465Z,2.9
2019-05-12T07:30:54.666Z,3
2019-05-12T07:31:54.473Z,2.9
2019-05-12T07:32:59.324Z,2.8
2019-05-12T07:33:55.626Z,2.9
2019-05-12T07:34:54.623Z,2.4
2019-05-12T07:36:00.906Z,2.7
2019-05-12T07:36:55.639Z,2.3
2019-05-12T07:37:54.644Z,2.5
2019-05-12T07:38:55.727Z,2.8
2019-05-12T07:39:55.776Z,2.7
2019-05-12T07:40:54.964Z,2.7
2019-05-12T07:41:55.932Z,2.6
2019-05-12T07:42:55.104Z,2.8
2019-05-12T07:43:56.609Z,2.5
2019-05-12T07:44:57.966Z,2.8
2019-05-12T07:46:02.154Z,2.7
2019-05-12T07:46:55.243Z,2.2
2019-05-12T07:47:59.312Z,2.3
2019-05-12T07:48:55.421Z,2.4
2019-05-12T07:49:55.428Z,2.5
2019-05-12T07:50:59.043Z,2.3
2019-05-12T07:51:56.436Z,2.3
2019-05-12T07:52:55.422Z,2.1
2019-05-12T07:53:58.881Z,2.4
2019-05-12T07:54:56.019Z,1.9
2019-05-12T07:55:55.772Z,2.1
2019-05-12T07:56:56.771Z,2.2
2019-05-12T07:57:58.673Z,2.1
2019-05-12T07:58:57.146Z,2
2019-05-12T07:59:56.007Z,2.2
2019-05-12T08:01:02.268Z,2
2019-05-12T08:01:55.987Z,2
2019-05-12T08:02:56.174Z,2.3
2019-05-12T08:03:59.972Z,2.1
2019-05-12T08:04:56.331Z,2
2019-05-12T08:05:57.257Z,2.3
2019-05-12T08:06:56.410Z,2.3
2019-05-12T08:08:00.513Z,2
2019-05-12T08:08:58.941Z,2
2019-05-12T08:09:56.530Z,2.3
2019-05-12T08:10:56.502Z,2.3
2019-05-12T08:11:56.693Z,2.1
2019-05-12T08:13:00.630Z,2.1
2019-05-12T08:13:56.843Z,2.4
2019-05-12T08:14:59.276Z,2.4
2019-05-12T08:15:56.808Z,2.3
2019-05-12T08:17:01.777Z,2.2
2019-05-12T08:17:59.356Z,2.4
2019-05-12T08:18:57.271Z,2.3
2019-05-12T08:19:57.300Z,2.6
2019-05-12T08:20:59.978Z,2.4
2019-05-12T08:21:57.368Z,2.3
2019-05-12T08:22:59.494Z,2.4
2019-05-12T08:23:58.537Z,2.4
2019-05-12T08:24:57.561Z,1.7
2019-05-12T08:25:57.606Z,1.8
2019-05-12T08:27:02.977Z,2
2019-05-12T08:28:10.116Z,1.8
2019-05-12T08:28:58.633Z,2
2019-05-12T08:30:00.862Z,1.8
2019-05-12T08:30:57.597Z,2.2
2019-05-12T08:31:57.757Z,2.1
2019-05-12T08:33:03.524Z,2.2
2019-05-12T08:33:57.754Z,2.1
2019-05-12T08:34:57.806Z,2.2
2019-05-12T08:36:03.050Z,1.8
2019-05-12T08:36:58.149Z,1.9
2019-05-12T08:37:57.882Z,1.4
2019-05-12T08:38:57.884Z,1.2
2019-05-12T08:40:03.095Z,1.1
2019-05-12T08:40:58.013Z,1.5
2019-05-12T08:41:58.174Z,1.3
2019-05-12T08:42:59.320Z,1.4
2019-05-12T08:43:58.519Z,1.7
2019-05-12T08:44:58.230Z,1.5
2019-05-12T08:46:00.151Z,1.6
2019-05-12T08:46:58.206Z,1.6
2019-05-12T08:47:58.411Z,1.5
2019-05-12T08:49:02.131Z,1.3
2019-05-12T08:49:58.834Z,1.6
2019-05-12T08:50:58.416Z,1.6
2019-05-12T08:52:00.269Z,1.7
2019-05-12T08:52:58.579Z,1.6
2019-05-12T08:54:02.279Z,2.1
2019-05-12T08:54:58.732Z,1.9
2019-05-12T08:55:58.706Z,1.6
2019-05-12T08:57:00.953Z,1.6
2019-05-12T08:57:59.074Z,1.8
2019-05-12T08:58:59.078Z,1.7
2019-05-12T09:00:02.686Z,1.9
2019-05-12T09:48:04.616Z,1.5
2019-05-12T09:49:01.824Z,1.2
2019-05-12T09:50:01.460Z,1.3
2019-05-12T09:53:06.956Z,1.4
2019-05-12T09:54:01.723Z,1.4
2019-05-12T09:55:04.047Z,1.2
2019-05-12T09:57:01.776Z,1.5
2019-05-12T09:58:03.946Z,1.2
2019-05-12T09:59:10.953Z,1.5
2019-05-12T10:00:04.412Z,1.3
2019-05-12T10:01:03.585Z,1.6
2019-05-12T10:02:03.651Z,1.3
2019-05-12T10:03:04.326Z,1.5
2019-05-12T10:04:03.442Z,1.3
2019-05-12T10:05:03.879Z,1.4
2019-05-12T10:06:03.660Z,1.6
2019-05-12T10:07:03.755Z,1.4
2019-05-12T10:08:04.472Z,1.5
2019-05-12T10:09:03.563Z,1.3
2019-05-12T10:10:03.596Z,1.1
2019-05-12T10:11:03.717Z,1.3
2019-05-12T10:12:03.179Z,1.2
2019-05-12T10:13:04.545Z,1.1
2019-05-12T10:14:06.264Z,1.2
2019-05-12T10:15:04.227Z,1.2
2019-05-12T10:16:04.753Z,1.3
2019-05-12T10:17:03.573Z,1.2
2019-05-12T10:18:06.266Z,1.1
2019-05-12T10:19:03.927Z,1.1
2019-05-12T10:20:02.885Z,1.4
2019-05-12T10:21:03.118Z,1.5
2019-05-12T10:22:03.116Z,1.3
2019-05-12T10:23:04.276Z,1.1
2019-05-12T10:24:04.928Z,1.3
2019-05-12T10:25:04.001Z,1.4
2019-05-12T10:26:09.365Z,1.1
2019-05-12T10:27:03.941Z,1.2
2019-05-12T10:28:11.276Z,1.1
2019-05-12T10:29:16.196Z,1.1
2019-05-12T10:30:11.816Z,1.1
2019-05-12T10:31:04.220Z,1.1
2019-05-12T10:32:04.151Z,1.5
2019-05-12T10:33:04.141Z,1.1
2019-05-12T10:34:03.935Z,1
2019-05-12T10:35:04.107Z,1
2019-05-12T10:36:05.058Z,1.2
2019-05-12T10:37:04.262Z,1.3
2019-05-12T10:38:09.152Z,1.2
2019-05-12T10:39:04.450Z,1.1
2019-05-12T10:40:04.354Z,1.2
2019-05-12T10:41:04.498Z,0.9
2019-05-12T10:42:04.440Z,1.2
2019-05-12T10:43:04.886Z,1.3
2019-05-12T10:44:04.426Z,1.2
2019-05-12T10:45:04.443Z,1.2
2019-05-12T10:46:04.621Z,1.1
2019-05-12T10:47:04.665Z,1.2
2019-05-12T10:48:04.495Z,1.1
2019-05-12T10:49:04.494Z,1.3
2019-05-12T10:50:04.508Z,0.9
2019-05-12T10:51:04.575Z,1.2
2019-05-12T10:52:04.572Z,1.1
2019-05-12T10:53:04.877Z,1.2
2019-05-12T10:54:09.790Z,1.3
2019-05-12T10:55:04.723Z,1.1
2019-05-12T10:56:04.903Z,1.5
2019-05-12T10:57:05.192Z,1.3
2019-05-12T10:58:07.012Z,1.3
2019-05-12T10:59:04.919Z,1.6
2019-05-12T11:00:04.927Z,1.5
2019-05-12T11:01:08.387Z,1.5
2019-05-12T11:02:05.031Z,1.4
2019-05-12T11:03:12.069Z,1.5
2019-05-12T11:04:05.212Z,1.3
2019-05-12T11:05:05.237Z,1.5
2019-05-12T11:06:07.644Z,1.6
2019-05-12T11:07:05.398Z,1.1
2019-05-12T11:08:09.234Z,1.1
2019-05-12T11:09:05.406Z,1.3
2019-05-12T11:10:15.095Z,1.3
2019-05-12T11:11:05.404Z,1
2019-05-12T11:12:06.585Z,1.2
2019-05-12T11:13:08.264Z,1.2
2019-05-12T11:14:05.501Z,1.2
2019-05-12T11:15:06.578Z,1
2019-05-12T11:16:06.667Z,1.2
2019-05-12T11:17:07.499Z,1.3
2019-05-12T11:18:05.703Z,1.1
2019-05-12T11:19:10.080Z,1.3
2019-05-12T11:20:05.702Z,1
2019-05-12T11:21:05.726Z,1.2
2019-05-12T11:22:05.777Z,1.1
2019-05-12T11:23:05.790Z,1
2019-05-12T11:24:05.817Z,1.5
2019-05-12T11:25:05.823Z,1.7
2019-05-12T11:26:05.830Z,1.8
2019-05-12T11:27:05.867Z,2.2
2019-05-12T11:28:05.869Z,1.6
2019-05-12T11:29:05.905Z,1.7
2019-05-12T11:30:05.946Z,1.3
2019-05-12T11:31:05.985Z,1.4
2019-05-12T11:32:06.055Z,1.4
2019-05-12T11:33:06.079Z,1.3
2019-05-12T11:34:06.213Z,1.4
2019-05-12T11:35:06.134Z,1.2
2019-05-12T11:36:06.143Z,1
2019-05-12T11:37:06.209Z,1.1
2019-05-12T11:38:06.223Z,1.1
2019-05-12T11:39:06.250Z,0.8
2019-05-12T11:40:06.280Z,0.9
2019-05-12T11:41:09.882Z,1
2019-05-12T11:42:06.341Z,0.9
2019-05-12T11:43:06.351Z,1
2019-05-12T11:44:06.396Z,1.1
2019-05-12T11:45:06.422Z,1.3
2019-05-12T11:46:06.477Z,1
2019-05-12T11:47:06.491Z,1.1
2019-05-12T11:48:10.049Z,1.2
2019-05-12T11:49:09.374Z,1.1
2019-05-12T11:50:09.628Z,1.5
2019-05-12T11:51:06.703Z,1.8
2019-05-12T11:52:11.816Z,1.5
2019-05-12T11:53:06.885Z,1.7
2019-05-12T11:54:08.828Z,1.6
2019-05-12T11:55:07.035Z,1.2
2019-05-12T11:56:07.908Z,1.2
2019-05-12T11:57:07.187Z,1.4
2019-05-12T11:58:11.351Z,1.1
2019-05-12T11:59:08.230Z,1
2019-05-12T12:00:07.209Z,1.1
2019-05-12T12:01:08.329Z,1.4
2019-05-12T12:02:07.527Z,1.4
2019-05-12T12:03:12.469Z,1.6
2019-05-12T12:04:08.630Z,1.7
2019-05-12T12:05:07.675Z,1.1
2019-05-12T12:06:07.645Z,1.2
2019-05-12T12:07:07.638Z,1
2019-05-12T12:08:07.827Z,1
2019-05-12T12:09:09.054Z,1
2019-05-12T12:10:07.901Z,0.8
2019-05-12T12:11:10.412Z,1
2019-05-12T12:12:07.974Z,1
2019-05-12T12:13:07.919Z,1.2
2019-05-12T12:14:10.432Z,1
2019-05-12T12:15:08.107Z,1.2
2019-05-12T12:16:11.085Z,1.3
2019-05-12T12:17:08.265Z,1.1
2019-05-12T12:18:12.927Z,1.1
2019-05-12T12:19:08.262Z,1.2
2019-05-12T12:20:08.428Z,1.4
2019-05-12T12:21:08.422Z,1.1
2019-05-12T12:22:08.413Z,1.2
2019-05-12T12:23:10.954Z,1
2019-05-12T12:24:08.630Z,1.1
2019-05-12T12:25:10.595Z,1.2
2019-05-12T12:26:08.655Z,1
2019-05-12T12:27:08.666Z,1.1
2019-05-12T12:28:08.691Z,1
2019-05-12T12:29:08.786Z,1.4
2019-05-12T12:30:16.652Z,1.2
2019-05-12T12:31:08.802Z,1.2
2019-05-12T12:32:09.772Z,1.1
2019-05-12T12:33:08.838Z,1.2
2019-05-12T12:34:09.031Z,1.2
2019-05-12T12:35:11.036Z,1.2
2019-05-12T12:36:09.239Z,1.3
2019-05-12T12:37:09.279Z,1.3
2019-05-12T12:38:09.272Z,1.1
2019-05-12T12:39:09.311Z,1.2
2019-05-12T12:40:09.358Z,1.2
2019-05-12T12:41:09.380Z,1.3
2019-05-12T12:42:09.404Z,1.1
2019-05-12T12:43:09.418Z,1.5
2019-05-12T12:44:09.459Z,1.3
2019-05-12T12:45:09.500Z,1.3
2019-05-12T12:46:10.456Z,1.4
2019-05-12T12:47:09.560Z,1.4
2019-05-12T12:48:09.558Z,1.4
2019-05-12T12:49:10.455Z,1
2019-05-12T12:50:09.626Z,1
2019-05-12T12:51:10.721Z,1
2019-05-12T12:52:09.764Z,1
2019-05-12T12:53:09.823Z,0.9
2019-05-12T12:54:09.853Z,0.9
2019-05-12T12:55:09.879Z,1.1
2019-05-12T12:56:09.910Z,1
2019-05-12T12:57:10.180Z,1
2019-05-12T12:58:09.950Z,1
2019-05-12T12:59:11.775Z,0.9
2019-05-12T13:00:10.015Z,0.9
2019-05-12T13:01:13.932Z,0.9
2019-05-12T13:02:10.027Z,0.8
2019-05-12T13:03:10.215Z,1
2019-05-12T13:04:10.205Z,0.8
2019-05-12T13:05:13.450Z,1
2019-05-12T13:06:10.499Z,0.8
2019-05-12T13:07:13.549Z,0.8
2019-05-12T13:21:10.892Z,0.8
2019-05-12T13:22:14.835Z,0.7
2019-05-12T13:23:13.585Z,0.8
2019-05-12T13:24:11.084Z,0.7
2019-05-12T13:25:11.084Z,0.8
2019-05-12T13:26:13.309Z,0.9
2019-05-12T13:27:11.124Z,0.8
2019-05-12T13:28:16.534Z,0.8
2019-05-12T13:29:13.244Z,0.7
2019-05-12T13:30:16.172Z,0.8
2019-05-12T13:31:15.726Z,0.9
2019-05-12T13:32:13.603Z,0.8
2019-05-12T13:33:14.650Z,0.7
2019-05-12T13:34:11.615Z,0.9
2019-05-12T13:35:16.083Z,0.8
2019-05-12T13:36:13.526Z,0.7
2019-05-12T13:37:15.330Z,0.9
2019-05-12T13:38:14.261Z,0.8
2019-05-12T13:39:16.196Z,1
2019-05-12T13:40:12.114Z,0.8
2019-05-12T13:41:15.718Z,0.7
2019-05-12T13:42:13.627Z,0.9
2019-05-12T13:43:15.382Z,0.9
2019-05-12T13:44:13.635Z,0.7
2019-05-12T13:45:15.545Z,0.8
2019-05-12T13:46:12.468Z,0.7
2019-05-12T13:47:14.011Z,0.8
2019-05-12T13:48:15.651Z,0.6
2019-05-12T13:49:14.115Z,0.9
2019-05-12T13:50:21.231Z,1
2019-05-12T13:51:15.756Z,0.7
2019-05-12T13:52:13.322Z,0.8
2019-05-12T13:53:13.824Z,0.7
2019-05-12T13:54:14.346Z,1.2
2019-05-12T13:55:13.559Z,0.8
2019-05-12T13:56:13.630Z,0.7
2019-05-12T13:57:14.008Z,1
2019-05-12T13:58:13.551Z,0.8
2019-05-12T13:59:20.479Z,0.8
2019-05-12T14:00:14.315Z,0.8
2019-05-12T14:01:19.215Z,0.7
2019-05-12T14:02:21.925Z,0.7
2019-05-12T14:03:14.463Z,0.8
2019-05-12T14:04:13.909Z,0.9
2019-05-12T14:05:14.915Z,0.9
2019-05-12T14:06:13.954Z,0.9
2019-05-12T14:07:15.587Z,1
2019-05-12T14:08:14.827Z,0.9
2019-05-12T14:09:13.899Z,1
2019-05-12T14:10:14.203Z,0.8
2019-05-12T14:11:13.925Z,0.9
2019-05-12T14:12:14.941Z,0.9
2019-05-12T14:13:14.207Z,0.9
2019-05-12T14:14:15.309Z,0.9
2019-05-12T14:15:14.447Z,0.9
2019-05-12T14:16:14.086Z,1
2019-05-12T14:17:14.797Z,1
2019-05-12T14:18:16.270Z,1
2019-05-12T14:19:15.207Z,1
2019-05-12T14:20:19.836Z,0.8
2019-05-12T14:21:15.226Z,0.9
2019-05-12T14:22:21.068Z,1.1
2019-05-12T14:23:15.387Z,0.7
2019-05-12T14:24:14.394Z,1
2019-05-12T14:25:15.098Z,2
2019-05-12T14:26:15.404Z,1.1
2019-05-12T14:27:18.984Z,2.1
2019-05-12T14:28:16.612Z,1
2019-05-12T14:29:14.509Z,0.8
2019-05-12T14:30:15.482Z,0.6
2019-05-12T14:31:26.245Z,0.8
2019-05-12T14:32:17.270Z,0.6
2019-05-12T14:33:18.329Z,0.8
2019-05-12T14:34:16.401Z,0.7
2019-05-12T14:35:15.764Z,0.7
2019-05-12T14:36:21.493Z,0.8
2019-05-12T14:37:17.508Z,0.6
2019-05-12T14:38:19.221Z,0.7
2019-05-12T14:39:15.937Z,0.7
2019-05-12T14:40:14.901Z,0.8
2019-05-12T14:41:16.067Z,0.8
2019-05-12T14:42:15.115Z,0.7
2019-05-12T14:43:16.615Z,0.8
2019-05-12T14:44:16.174Z,0.7
2019-05-12T14:45:19.285Z,0.8
2019-05-12T14:46:16.305Z,1.1
2019-05-12T14:47:19.093Z,1
2019-05-12T14:48:16.455Z,0.8
2019-05-12T14:49:20.161Z,0.9
2019-05-12T14:50:16.677Z,1
2019-05-12T14:51:15.685Z,0.8
2019-05-12T14:52:15.721Z,0.8
2019-05-12T14:53:15.762Z,0.8
2019-05-12T14:54:16.806Z,0.9
2019-05-12T14:55:15.803Z,0.9
2019-05-12T14:56:15.791Z,0.9
2019-05-12T14:57:15.800Z,0.9
2019-05-12T14:58:20.444Z,0.8
2019-05-12T14:59:16.939Z,1
2019-05-12T15:00:20.821Z,1
2019-05-12T15:01:17.083Z,0.9
2019-05-12T15:02:19.329Z,0.9
2019-05-12T15:03:17.220Z,0.8
2019-05-12T15:04:19.230Z,0.9
2019-05-12T15:05:17.422Z,1
2019-05-12T15:06:19.364Z,1.1
2019-05-12T15:07:17.513Z,1.1
2019-05-12T15:09:21.668Z,0.9
2019-05-12T15:16:18.024Z,0.9
2019-05-12T15:18:18.167Z,0.8
2019-05-12T15:19:20.698Z,1
2019-05-12T15:20:17.336Z,1.2
2019-05-12T15:21:21.237Z,1.1
2019-05-12T15:22:17.370Z,1
2019-05-12T15:23:17.369Z,1
2019-05-12T15:24:18.858Z,0.9
2019-05-12T15:25:17.446Z,1
2019-05-12T15:26:19.750Z,0.9
2019-05-12T15:27:17.603Z,0.9
2019-05-12T15:28:17.603Z,1
2019-05-12T15:29:19.691Z,0.8
2019-05-12T15:30:23.085Z,1
2019-05-12T15:31:17.663Z,1
2019-05-12T15:32:17.730Z,0.9
2019-05-12T15:33:17.729Z,1
2019-05-12T15:34:17.721Z,0.8
2019-05-12T15:35:18.484Z,1
2019-05-12T15:36:17.835Z,0.8
2019-05-12T15:37:17.849Z,0.8
2019-05-12T15:38:17.835Z,0.9
2019-05-12T15:39:17.981Z,0.8
2019-05-12T15:40:18.049Z,0.8
2019-05-12T15:41:20.022Z,0.7
2019-05-12T15:42:18.054Z,0.9
2019-05-12T15:43:18.126Z,0.8
2019-05-12T15:44:23.047Z,0.8
2019-05-12T15:45:18.206Z,0.8
2019-05-12T15:46:18.198Z,0.9
2019-05-12T15:47:18.236Z,0.7
2019-05-12T15:48:18.676Z,0.9
2019-05-12T15:49:18.237Z,1
2019-05-12T15:50:18.420Z,0.7
2019-05-12T15:51:18.310Z,1.1
2019-05-12T15:52:18.329Z,0.9
2019-05-12T15:53:21.921Z,0.9
2019-05-12T15:54:18.462Z,1.2
2019-05-12T15:55:20.427Z,0.9
2019-05-12T15:56:22.965Z,1.2
2019-05-12T15:57:18.931Z,1.1
2019-05-12T15:58:18.944Z,1.1
2019-05-12T15:59:18.961Z,1
2019-05-12T16:00:19.938Z,0.8
2019-05-12T16:01:19.130Z,0.8
2019-05-12T16:02:19.080Z,0.9
2019-05-12T16:03:19.269Z,1
2019-05-12T16:04:19.273Z,1
2019-05-12T16:05:19.940Z,0.9
2019-05-12T16:06:19.314Z,1
2019-05-12T16:07:19.323Z,0.9
2019-05-12T16:08:19.358Z,1.2